createdAt,value
2023-03-05T00:01:54.974Z,81.33
2023-03-05T00:04:21.585Z,80.44
2023-03-05T00:06:48.141Z,80.96
2023-03-05T00:09:14.756Z,80.93
2023-03-05T00:11:41.385Z,81.41
2023-03-05T00:14:08.017Z,81.26
2023-03-05T00:16:34.684Z,81.38
2023-03-05T00:19:01.640Z,81.75
2023-03-05T00:21:32.490Z,80.91
2023-03-05T00:24:03.586Z,81.42
2023-03-05T00:26:31.236Z,81.26
2023-03-05T00:28:58.629Z,81.89
2023-03-05T00:31:31.289Z,81.76
2023-03-05T00:34:01.352Z,81.67
2023-03-05T00:36:28.869Z,81.56
2023-03-05T00:38:55.621Z,81.17
2023-03-05T00:41:22.417Z,82.02
2023-03-05T00:43:49.205Z,80.93
2023-03-05T00:46:16.690Z,82.02
2023-03-05T00:48:43.379Z,82.38
2023-03-05T00:51:10.192Z,82.26
2023-03-05T00:53:36.779Z,83.19
2023-03-05T00:56:05.024Z,82.51
2023-03-05T00:58:31.613Z,82.17
2023-03-05T01:01:00.113Z,82.01
2023-03-05T01:03:27.528Z,82.16
2023-03-05T01:05:55.713Z,82.24
2023-03-05T01:08:22.277Z,82.45
2023-03-05T01:10:49.031Z,82.65
2023-03-05T01:13:15.652Z,83.25
2023-03-05T01:15:42.556Z,83.13
2023-03-05T01:18:09.134Z,82.77
2023-03-05T01:20:36.055Z,83.66
2023-03-05T01:23:02.730Z,84.42
2023-03-05T01:25:29.320Z,83.79
2023-03-05T01:27:56.669Z,83.64
2023-03-05T01:30:23.399Z,83.80
2023-03-05T01:32:50.073Z,83.90
2023-03-05T01:35:20.697Z,82.94
2023-03-05T01:37:47.569Z,83.23
2023-03-05T01:40:17.383Z,84.12
2023-03-05T01:42:48.704Z,83.94
2023-03-05T01:45:17.963Z,83.88
2023-03-05T01:47:45.304Z,83.60
2023-03-05T01:50:17.285Z,83.09
2023-03-05T01:52:49.621Z,83.46
2023-03-05T01:55:37.214Z,83.10
2023-03-05T01:58:08.095Z,83.68
2023-03-05T02:00:40.370Z,83.71
2023-03-05T02:03:10.649Z,83.16
2023-03-05T02:05:39.384Z,84.12
2023-03-05T02:08:09.208Z,83.83
2023-03-05T02:10:50.831Z,84.67
2023-03-05T02:13:22.594Z,84.47
2023-03-05T02:15:49.956Z,84.05
2023-03-05T02:18:18.316Z,83.82
2023-03-05T02:20:57.281Z,84.36
2023-03-05T02:23:30.204Z,85.43
2023-03-05T02:25:56.782Z,85.46
2023-03-05T02:28:29.543Z,84.79
2023-03-05T02:30:56.259Z,85.69
2023-03-05T02:33:23.332Z,85.40
2023-03-05T02:35:50.217Z,85.07
2023-03-05T02:38:18.883Z,85.53
2023-03-05T02:40:45.622Z,85.40
2023-03-05T02:43:13.620Z,86.13
2023-03-05T02:45:40.449Z,85.40
2023-03-05T02:48:07.054Z,84.51
2023-03-05T02:50:34.340Z,85.38
2023-03-05T02:53:00.909Z,85.31
2023-03-05T02:55:28.205Z,85.96
2023-03-05T02:57:54.771Z,85.76
2023-03-05T03:00:22.545Z,86.37
2023-03-05T03:02:49.722Z,86.81
2023-03-05T03:05:16.338Z,86.39
2023-03-05T03:07:42.877Z,85.98
2023-03-05T03:10:10.435Z,86.08
2023-03-05T03:12:41.663Z,85.93
2023-03-05T03:15:09.933Z,86.27
2023-03-05T03:17:37.626Z,85.60
2023-03-05T03:20:07.662Z,86.51
2023-03-05T03:22:34.335Z,86.46
2023-03-05T03:25:01.437Z,86.51
2023-03-05T03:27:28.159Z,86.28
2023-03-05T03:29:54.744Z,86.82
2023-03-05T03:32:21.398Z,86.92
2023-03-05T03:34:48.331Z,86.55
2023-03-05T03:37:15.162Z,86.23
2023-03-05T03:39:41.713Z,86.16
2023-03-05T03:42:08.304Z,86.06
2023-03-05T03:44:34.899Z,87.01
2023-03-05T03:47:02.427Z,86.60
2023-03-05T03:49:28.996Z,86.71
2023-03-05T03:51:55.917Z,86.39
2023-03-05T03:54:22.877Z,86.19
2023-03-05T03:56:49.446Z,86.23
2023-03-05T03:59:16.206Z,86.38
2023-03-05T04:01:43.225Z,86.95
2023-03-05T04:04:11.683Z,87.21
2023-03-05T04:06:38.751Z,86.87
2023-03-05T04:09:06.099Z,86.63
2023-03-05T04:11:32.643Z,87.20
2023-03-05T04:13:59.242Z,87.30
2023-03-05T04:16:26.162Z,87.29
2023-03-05T04:18:53.103Z,86.86
2023-03-05T04:21:19.706Z,87.33
2023-03-05T04:23:46.309Z,87.22
2023-03-05T04:26:12.926Z,87.86
2023-03-05T04:28:39.621Z,88.06
2023-03-05T04:31:06.256Z,87.99
2023-03-05T04:33:33.812Z,87.53
2023-03-05T04:36:00.470Z,87.99
2023-03-05T04:38:27.100Z,87.74
2023-03-05T04:40:53.788Z,88.46
2023-03-05T04:43:20.420Z,88.65
2023-03-05T04:45:46.948Z,88.92
2023-03-05T04:48:13.704Z,88.72
2023-03-05T04:50:40.244Z,88.53
2023-03-05T04:53:06.911Z,88.49
2023-03-05T04:55:33.497Z,87.65
2023-03-05T04:58:00.010Z,88.12
2023-03-05T05:00:26.537Z,87.93
2023-03-05T05:02:53.548Z,87.92
2023-03-05T05:05:23.159Z,88.63
2023-03-05T05:07:50.159Z,88.51
2023-03-05T05:10:17.354Z,88.32
2023-03-05T05:12:43.840Z,88.47
2023-03-05T05:15:12.132Z,88.66
2023-03-05T05:17:38.854Z,88.09
2023-03-05T05:20:08.828Z,89.21
2023-03-05T05:22:35.697Z,90.05
2023-03-05T05:25:03.041Z,89.06
2023-03-05T05:27:29.660Z,89.81
2023-03-05T05:29:56.476Z,89.23
2023-03-05T05:32:24.161Z,88.56
2023-03-05T05:34:58.552Z,88.68
2023-03-05T05:37:26.638Z,88.94
2023-03-05T05:39:53.821Z,88.54
2023-03-05T05:42:22.828Z,89.19
2023-03-05T05:44:50.060Z,88.62
2023-03-05T05:47:18.232Z,89.05
2023-03-05T05:49:44.881Z,89.00
2023-03-05T05:52:11.498Z,89.80
2023-03-05T05:54:38.784Z,89.54
2023-03-05T05:57:05.982Z,88.89
2023-03-05T05:59:32.661Z,88.42
2023-03-05T06:01:59.578Z,88.60
2023-03-05T06:04:26.244Z,89.23
2023-03-05T06:06:52.774Z,89.22
2023-03-05T06:09:19.451Z,89.35
2023-03-05T06:11:46.033Z,89.28
2023-03-05T06:14:13.247Z,88.89
2023-03-05T06:16:40.393Z,88.96
2023-03-05T06:19:08.792Z,88.68
2023-03-05T06:21:35.257Z,88.63
2023-03-05T06:24:01.823Z,89.02
2023-03-05T06:26:28.271Z,89.44
2023-03-05T06:28:54.906Z,88.91
2023-03-05T06:31:25.623Z,89.44
2023-03-05T06:33:55.268Z,89.61
2023-03-05T06:36:23.307Z,88.55
2023-03-05T06:38:53.040Z,88.81
2023-03-05T06:41:23.282Z,88.95
2023-03-05T06:43:50.288Z,88.83
2023-03-05T06:46:19.705Z,88.96
2023-03-05T06:48:46.536Z,88.52
2023-03-05T06:51:18.567Z,88.49
2023-03-05T06:53:48.981Z,88.79
2023-03-05T06:56:16.723Z,89.27
2023-03-05T06:58:45.784Z,89.60
2023-03-05T07:01:13.116Z,90.18
2023-03-05T07:03:40.333Z,90.63
2023-03-05T07:06:08.968Z,90.34
2023-03-05T07:08:36.476Z,90.31
2023-03-05T07:11:03.991Z,90.36
2023-03-05T07:13:30.521Z,90.06
2023-03-05T07:15:57.153Z,89.79
2023-03-05T07:18:23.629Z,90.75
2023-03-05T07:20:50.120Z,90.61
2023-03-05T07:23:16.625Z,89.63
2023-03-05T07:25:43.159Z,89.37
2023-03-05T07:28:10.657Z,90.42
2023-03-05T07:30:37.254Z,89.99
2023-03-05T07:33:03.851Z,89.36
2023-03-05T07:35:30.348Z,89.38
2023-03-05T07:37:56.980Z,88.96
2023-03-05T07:40:23.559Z,88.07
2023-03-05T07:42:50.114Z,88.62
2023-03-05T07:45:24.375Z,88.74
2023-03-05T07:47:52.551Z,88.31
2023-03-05T07:50:19.176Z,88.85
2023-03-05T07:52:45.689Z,86.94
2023-03-05T07:55:12.115Z,87.14
2023-03-05T07:57:39.001Z,88.22
2023-03-05T08:00:07.001Z,87.32
2023-03-05T08:02:38.196Z,87.39
2023-03-05T08:05:05.039Z,88.58
2023-03-05T08:07:31.541Z,86.21
2023-03-05T08:09:58.055Z,88.10
2023-03-05T08:12:24.595Z,86.79
2023-03-05T08:14:51.556Z,85.74
2023-03-05T08:17:18.269Z,86.73
2023-03-05T08:19:44.752Z,85.55
2023-03-05T08:22:11.479Z,84.61
2023-03-05T08:24:38.009Z,84.64
2023-03-05T08:27:04.363Z,84.47
2023-03-05T08:29:30.852Z,83.78
2023-03-05T08:31:57.306Z,84.50
2023-03-05T08:34:23.762Z,82.74
2023-03-05T08:36:50.251Z,83.98
2023-03-05T08:39:17.168Z,83.28
2023-03-05T08:41:43.670Z,82.09
2023-03-05T08:44:10.313Z,82.64
2023-03-05T08:46:39.603Z,82.28
2023-03-05T08:49:07.394Z,82.21
2023-03-05T08:51:34.760Z,82.53
2023-03-05T08:54:02.493Z,82.43
2023-03-05T08:56:31.213Z,81.32
2023-03-05T08:58:57.693Z,81.70
2023-03-05T09:01:24.234Z,81.80
2023-03-05T09:03:51.027Z,81.81
2023-03-05T09:06:17.617Z,82.93
2023-03-05T09:08:44.067Z,81.83
2023-03-05T09:11:12.474Z,81.38
2023-03-05T09:13:39.369Z,81.79
2023-03-05T09:16:09.057Z,81.74
2023-03-05T09:18:36.675Z,80.77
2023-03-05T09:21:14.878Z,80.38
2023-03-05T09:23:42.203Z,80.48
2023-03-05T09:26:12.020Z,81.80
2023-03-05T09:28:39.759Z,81.76
2023-03-05T09:31:08.017Z,81.66
2023-03-05T09:33:36.031Z,80.30
2023-03-05T09:36:04.502Z,81.99
2023-03-05T09:38:31.370Z,80.32
2023-03-05T09:41:16.942Z,80.45
2023-03-05T09:43:55.325Z,81.12
2023-03-05T09:46:36.424Z,80.28
2023-03-05T09:49:11.500Z,80.56
2023-03-05T09:51:41.378Z,80.00
2023-03-05T09:54:30.306Z,78.20
2023-03-05T09:57:02.646Z,79.89
2023-03-05T09:59:35.948Z,79.42
2023-03-05T10:02:17.045Z,76.34
2023-03-05T10:04:58.303Z,77.70
2023-03-05T10:07:30.727Z,78.57
2023-03-05T10:10:05.134Z,78.96
2023-03-05T10:12:48.432Z,79.63
2023-03-05T10:15:16.980Z,79.71
2023-03-05T10:17:58.699Z,78.21
2023-03-05T10:20:39.129Z,77.71
2023-03-05T10:23:08.732Z,78.20
2023-03-05T10:25:53.353Z,77.23
2023-03-05T10:28:43.873Z,76.52
2023-03-05T10:31:25.940Z,75.34
2023-03-05T10:34:32.547Z,75.13
2023-03-05T10:37:09.703Z,74.94
2023-03-05T10:40:05.954Z,74.63
2023-03-05T10:42:41.591Z,75.18
2023-03-05T10:45:15.469Z,73.60
2023-03-05T10:47:55.495Z,73.45
2023-03-05T10:50:27.828Z,75.66
2023-03-05T10:53:15.229Z,73.85
2023-03-05T10:55:42.109Z,73.56
2023-03-05T10:58:14.996Z,74.82
2023-03-05T11:01:18.847Z,74.98
2023-03-05T11:03:51.175Z,75.45
2023-03-05T11:06:27.127Z,75.62
2023-03-05T11:08:53.777Z,75.17
2023-03-05T11:11:21.134Z,75.56
2023-03-05T11:14:01.011Z,74.80
2023-03-05T11:16:31.540Z,74.90
2023-03-05T11:19:17.616Z,75.37
2023-03-05T11:21:45.627Z,72.77
2023-03-05T11:24:16.227Z,74.82
2023-03-05T11:26:49.921Z,75.21
2023-03-05T11:29:31.030Z,74.99
2023-03-05T11:32:35.468Z,73.72
2023-03-05T11:35:02.017Z,70.74
2023-03-05T11:37:29.884Z,71.27
2023-03-05T11:40:18.105Z,70.17
2023-03-05T11:42:45.190Z,71.32
2023-03-05T11:45:16.972Z,70.45
2023-03-05T11:47:52.101Z,70.26
2023-03-05T11:50:35.825Z,70.39
2023-03-05T11:53:07.517Z,69.11
2023-03-05T11:55:37.073Z,68.71
2023-03-05T11:58:27.152Z,70.04
2023-03-05T12:00:53.623Z,70.69
2023-03-05T12:03:25.490Z,69.70
2023-03-05T12:06:27.445Z,68.87
2023-03-05T12:08:57.635Z,69.62
2023-03-05T12:11:28.999Z,70.19
2023-03-05T12:14:19.342Z,69.96
2023-03-05T12:16:50.791Z,69.83
2023-03-05T12:19:31.904Z,71.05
2023-03-05T12:21:59.307Z,70.18
2023-03-05T12:24:28.113Z,70.84
2023-03-05T12:27:06.413Z,69.58
2023-03-05T12:29:32.843Z,70.73
2023-03-05T12:32:02.479Z,70.81
2023-03-05T12:34:40.900Z,70.68
2023-03-05T12:37:20.601Z,69.97
2023-03-05T12:39:52.589Z,70.34
2023-03-05T12:42:45.161Z,69.03
2023-03-05T12:45:11.789Z,68.80
2023-03-05T12:48:13.492Z,69.60
2023-03-05T12:50:40.026Z,69.41
2023-03-05T12:53:06.902Z,69.25
2023-03-05T12:55:48.542Z,67.60
2023-03-05T12:58:21.202Z,68.24
2023-03-05T13:01:02.497Z,67.70
2023-03-05T13:03:33.556Z,66.41
2023-03-05T13:06:00.877Z,67.30
2023-03-05T13:08:31.619Z,66.69
2023-03-05T13:11:06.192Z,65.18
2023-03-05T13:13:38.722Z,65.97
2023-03-05T13:16:05.713Z,65.92
2023-03-05T13:18:33.077Z,66.54
2023-03-05T13:21:12.215Z,65.33
2023-03-05T13:23:57.605Z,64.98
2023-03-05T13:26:28.657Z,65.54
2023-03-05T13:29:18.828Z,65.95
2023-03-05T13:32:01.728Z,66.21
2023-03-05T13:34:44.604Z,65.90
2023-03-05T13:37:20.974Z,66.20
2023-03-05T13:40:00.440Z,66.49
2023-03-05T13:42:34.473Z,66.19
2023-03-05T13:45:04.707Z,66.53
2023-03-05T13:47:34.005Z,65.86
2023-03-05T13:50:06.519Z,66.68
2023-03-05T13:52:36.049Z,66.36
2023-03-05T13:55:11.844Z,65.98
2023-03-05T13:57:44.556Z,66.87
2023-03-05T14:00:31.111Z,66.74
2023-03-05T14:03:01.042Z,67.38
2023-03-05T14:05:30.886Z,66.59
2023-03-05T14:07:57.650Z,67.15
2023-03-05T14:10:29.313Z,67.07
2023-03-05T14:12:56.760Z,67.19
2023-03-05T14:15:28.927Z,66.97
2023-03-05T14:18:12.170Z,67.28
2023-03-05T14:20:40.450Z,67.80
2023-03-05T14:23:32.887Z,67.14
2023-03-05T14:26:20.808Z,67.54
2023-03-05T14:28:52.941Z,67.79
2023-03-05T14:31:21.095Z,67.03
2023-03-05T14:33:49.494Z,67.52
2023-03-05T14:36:23.455Z,67.98
2023-03-05T14:38:51.805Z,67.89
2023-03-05T14:41:22.588Z,67.80
2023-03-05T14:43:49.067Z,67.24
2023-03-05T14:46:15.554Z,66.74
2023-03-05T14:48:42.176Z,66.93
2023-03-05T14:51:10.771Z,67.10
2023-03-05T14:53:46.343Z,67.85
2023-03-05T14:56:22.362Z,67.17
2023-03-05T14:58:48.951Z,66.73
2023-03-05T15:01:15.540Z,66.54
2023-03-05T15:03:42.396Z,66.61
2023-03-05T15:06:18.653Z,66.23
2023-03-05T15:08:45.486Z,66.67
2023-03-05T15:11:12.020Z,65.68
2023-03-05T15:13:38.594Z,66.04
2023-03-05T15:16:06.813Z,66.77
2023-03-05T15:18:33.413Z,67.10
2023-03-05T15:21:00.220Z,66.91
2023-03-05T15:23:29.705Z,67.51
2023-03-05T15:25:56.205Z,68.21
2023-03-05T15:28:22.616Z,68.56
2023-03-05T15:30:49.157Z,67.88
2023-03-05T15:33:17.016Z,68.96
2023-03-05T15:35:44.304Z,69.43
2023-03-05T15:38:10.975Z,69.71
2023-03-05T15:40:37.459Z,69.63
2023-03-05T15:43:04.045Z,70.04
2023-03-05T15:45:33.754Z,69.83
2023-03-05T15:48:00.298Z,70.40
2023-03-05T15:50:28.219Z,70.89
2023-03-05T15:52:54.629Z,69.98
2023-03-05T15:55:21.374Z,70.27
2023-03-05T15:57:50.257Z,70.65
2023-03-05T16:00:23.785Z,71.06
2023-03-05T16:02:52.326Z,71.02
2023-03-05T16:05:18.758Z,71.17
2023-03-05T16:07:45.958Z,71.38
2023-03-05T16:10:17.443Z,71.46
2023-03-05T16:12:47.255Z,71.73
2023-03-05T16:15:16.027Z,70.82
2023-03-05T16:17:45.296Z,71.75
2023-03-05T16:20:12.672Z,71.21
2023-03-05T16:22:39.170Z,72.00
2023-03-05T16:25:06.150Z,70.57
2023-03-05T16:27:32.809Z,70.74
2023-03-05T16:29:59.275Z,70.58
2023-03-05T16:32:25.920Z,71.05
2023-03-05T16:34:52.454Z,71.21
2023-03-05T16:37:20.146Z,70.97
2023-03-05T16:39:46.964Z,70.71
2023-03-05T16:42:13.859Z,70.62
2023-03-05T16:44:41.598Z,71.11
2023-03-05T16:47:09.277Z,71.03
2023-03-05T16:49:36.631Z,71.23
2023-03-05T16:52:16.445Z,71.45
2023-03-05T16:54:45.256Z,71.31
2023-03-05T16:57:12.153Z,72.09
2023-03-05T16:59:38.764Z,71.70
2023-03-05T17:02:06.172Z,71.41
2023-03-05T17:04:32.876Z,71.82
2023-03-05T17:06:59.504Z,71.79
2023-03-05T17:09:26.052Z,71.41
2023-03-05T17:11:54.040Z,71.74
2023-03-05T17:14:20.813Z,72.58
2023-03-05T17:16:47.608Z,71.91
2023-03-05T17:19:14.630Z,71.87
2023-03-05T17:21:42.477Z,72.26
2023-03-05T17:24:09.945Z,72.50
2023-03-05T17:26:36.944Z,72.12
2023-03-05T17:29:04.950Z,72.50
2023-03-05T17:31:31.825Z,72.53
2023-03-05T17:33:58.426Z,72.37
2023-03-05T17:36:25.666Z,72.55
2023-03-05T17:38:53.956Z,71.96
2023-03-05T17:41:21.004Z,72.64
2023-03-05T17:43:47.851Z,72.07
2023-03-05T17:46:14.859Z,72.16
2023-03-05T17:48:41.697Z,72.69
2023-03-05T17:51:11.421Z,72.74
2023-03-05T17:53:39.379Z,72.88
2023-03-05T17:56:08.267Z,72.44
2023-03-05T17:58:34.959Z,72.65
2023-03-05T18:01:01.544Z,73.09
2023-03-05T18:03:28.003Z,73.23
2023-03-05T18:05:54.413Z,73.10
2023-03-05T18:08:21.039Z,72.82
2023-03-05T18:10:47.642Z,73.56
2023-03-05T18:13:14.281Z,73.63
2023-03-05T18:15:47.321Z,73.37
2023-03-05T18:18:18.155Z,73.75
2023-03-05T18:20:45.815Z,74.32
2023-03-05T18:23:12.640Z,73.58
2023-03-05T18:25:39.264Z,74.48
2023-03-05T18:28:08.376Z,73.74
2023-03-05T18:30:35.480Z,74.62
2023-03-05T18:33:02.202Z,75.04
2023-03-05T18:35:29.310Z,74.75
2023-03-05T18:37:56.759Z,74.60
2023-03-05T18:40:25.896Z,74.96
2023-03-05T18:42:52.621Z,74.93
2023-03-05T18:45:20.546Z,74.38
2023-03-05T18:47:47.942Z,74.73
2023-03-05T18:50:18.495Z,75.15
2023-03-05T18:52:45.792Z,75.48
2023-03-05T18:55:16.040Z,75.01
2023-03-05T18:57:42.529Z,75.73
2023-03-05T19:00:13.038Z,75.23
2023-03-05T19:02:39.519Z,75.09
2023-03-05T19:05:06.292Z,76.19
2023-03-05T19:07:34.918Z,75.98
2023-03-05T19:10:07.454Z,75.87
2023-03-05T19:12:38.293Z,75.85
2023-03-05T19:15:05.823Z,76.22
2023-03-05T19:17:32.766Z,76.30
2023-03-05T19:19:59.712Z,76.49
2023-03-05T19:22:28.431Z,76.53
2023-03-05T19:24:55.059Z,76.88
2023-03-05T19:27:21.528Z,76.66
2023-03-05T19:29:47.985Z,77.20
2023-03-05T19:32:17.672Z,76.39
2023-03-05T19:34:47.636Z,77.25
2023-03-05T19:37:14.870Z,76.88
2023-03-05T19:39:42.267Z,76.93
2023-03-05T19:42:08.839Z,77.33
2023-03-05T19:44:35.341Z,77.32
2023-03-05T19:47:01.916Z,77.36
2023-03-05T19:49:28.719Z,77.77
2023-03-05T19:51:55.607Z,78.05
2023-03-05T19:54:22.929Z,77.59
2023-03-05T19:56:50.838Z,78.33
2023-03-05T19:59:21.050Z,78.21
2023-03-05T20:01:48.731Z,79.07
2023-03-05T20:04:18.589Z,78.41
2023-03-05T20:06:45.436Z,78.56
2023-03-05T20:09:12.119Z,79.05
2023-03-05T20:11:39.535Z,78.99
2023-03-05T20:14:06.802Z,79.58
2023-03-05T20:16:35.182Z,79.49
2023-03-05T20:19:04.577Z,79.44
2023-03-05T20:21:34.406Z,79.16
2023-03-05T20:24:09.489Z,79.01
2023-03-05T20:26:38.665Z,79.63
2023-03-05T20:29:06.235Z,79.09
2023-03-05T20:31:36.716Z,79.73
2023-03-05T20:34:09.030Z,79.66
2023-03-05T20:36:35.853Z,79.41
2023-03-05T20:39:04.535Z,79.40
2023-03-05T20:41:31.559Z,79.48
2023-03-05T20:43:58.112Z,79.91
2023-03-05T20:46:27.407Z,79.79
2023-03-05T20:48:57.608Z,79.63
2023-03-05T20:51:45.994Z,80.03
2023-03-05T20:54:13.334Z,80.25
2023-03-05T20:56:39.913Z,80.05
2023-03-05T20:59:08.714Z,80.07
2023-03-05T21:01:37.511Z,80.06
2023-03-05T21:04:04.626Z,80.16
2023-03-05T21:06:32.895Z,80.58
2023-03-05T21:09:00.121Z,80.06
2023-03-05T21:11:27.959Z,80.21
2023-03-05T21:13:54.458Z,80.81
2023-03-05T21:16:24.668Z,80.39
2023-03-05T21:18:52.318Z,80.70
2023-03-05T21:21:19.555Z,80.93
2023-03-05T21:23:46.977Z,80.37
2023-03-05T21:26:13.756Z,80.46
2023-03-05T21:28:41.005Z,80.60
2023-03-05T21:31:10.256Z,80.63
2023-03-05T21:33:37.231Z,80.64
2023-03-05T21:36:04.554Z,80.76
2023-03-05T21:38:33.889Z,80.64
2023-03-05T21:41:01.765Z,80.85
2023-03-05T21:43:28.851Z,80.97
2023-03-05T21:45:57.196Z,81.07
2023-03-05T21:48:24.948Z,80.79
2023-03-05T21:50:51.545Z,82.00
2023-03-05T21:53:19.104Z,81.37
2023-03-05T21:56:05.132Z,80.09
2023-03-05T21:58:33.590Z,80.46
2023-03-05T22:01:00.836Z,80.81
2023-03-05T22:03:28.498Z,81.35
2023-03-05T22:05:55.483Z,81.46
2023-03-05T22:08:22.641Z,81.58
2023-03-05T22:10:50.295Z,81.49
2023-03-05T22:13:17.861Z,81.55
2023-03-05T22:15:48.308Z,81.17
2023-03-05T22:18:17.714Z,82.07
2023-03-05T22:20:44.925Z,81.31
2023-03-05T22:23:12.543Z,81.84
2023-03-05T22:25:39.612Z,81.83
2023-03-05T22:28:06.937Z,81.80
2023-03-05T22:30:33.541Z,82.09
2023-03-05T22:33:01.971Z,82.58
2023-03-05T22:35:29.324Z,82.23
2023-03-05T22:37:55.831Z,82.97
2023-03-05T22:40:24.000Z,82.49
2023-03-05T22:42:50.732Z,82.66
2023-03-05T22:45:18.031Z,83.08
2023-03-05T22:47:49.334Z,82.94
2023-03-05T22:50:19.441Z,83.13
2023-03-05T22:52:46.386Z,83.01
2023-03-05T22:55:15.345Z,83.57
2023-03-05T22:57:42.711Z,82.97
2023-03-05T23:00:14.370Z,83.52
2023-03-05T23:18:10.417Z,85.24
2023-03-05T23:20:38.446Z,84.70
2023-03-05T23:23:04.995Z,85.00
2023-03-05T23:25:33.905Z,84.64
2023-03-05T23:28:01.749Z,84.64
2023-03-05T23:30:29.937Z,84.49
2023-03-05T23:32:59.983Z,84.52
2023-03-05T23:35:30.019Z,84.57
2023-03-05T23:37:58.972Z,85.06
2023-03-05T23:40:28.272Z,84.62
2023-03-05T23:42:55.051Z,84.04
2023-03-05T23:45:22.732Z,84.37
2023-03-05T23:47:51.143Z,84.94
2023-03-05T23:50:21.193Z,84.79
2023-03-05T23:52:48.560Z,85.09
2023-03-05T23:55:18.321Z,84.52
2023-03-05T23:57:47.217Z,84.42
